Time;durP1;ratioP1;P1;durP2;ratioP2;P2;SDS_P1;SDS_P2;PMS_P1;PMS_P2;Temp;Humidity;BMP_temperature;BMP_pressure;BME280_temperature;BME280_humidity;BME280_pressure;Samples;Min_cycle;Max_cycle;Signal;HPM_P1;HPM_P2
2022/05/14 00:01:44;;;;;;;22.27;12.90;;;;;;;;;;6183404;23;20017;-86
2022/05/14 00:04:10;;;;;;;21.40;13.40;;;;;;;;;;6152611;23;20226;-86
2022/05/14 00:06:40;;;;;;;16.42;11.80;;;;;;;;;;6153421;23;20043;-86
2022/05/14 00:09:06;;;;;;;19.10;12.75;;;;;;;;;;6180667;23;20009;-85
2022/05/14 00:14:18;;;;;;;19.17;14.15;;;;;;;;;;6180471;23;20016;-86
2022/05/14 00:16:45;;;;;;;22.00;13.27;;;;;;;;;;6154357;23;20013;-86
2022/05/14 00:19:11;;;;;;;20.27;12.80;;;;;;;;;;6154263;23;20005;-84
2022/05/14 00:21:41;;;;;;;19.23;13.57;;;;;;;;;;6180446;23;20029;-86
2022/05/14 00:24:07;;;;;;;23.23;14.18;;;;;;;;;;6180887;23;20749;-86
2022/05/14 00:26:37;;;;;;;23.08;12.73;;;;;;;;;;6181145;23;20325;-87
2022/05/14 00:29:04;;;;;;;18.20;13.18;;;;;;;;;;6154060;23;20032;-86
2022/05/14 00:31:46;;;;;;;20.10;13.00;;;;;;;;;;6154856;23;20067;-87
2022/05/14 00:34:21;;;;;;;23.45;11.18;;;;;;;;;;6180934;23;20482;-87
2022/05/14 00:36:47;;;;;;;12.52;7.72;;;;;;;;;;6153754;23;20705;-88
2022/05/14 00:39:16;;;;;;;17.35;8.25;;;;;;;;;;6154764;23;20083;-87
2022/05/14 00:41:49;;;;;;;13.65;7.60;;;;;;;;;;6154976;23;20429;-87
2022/05/14 00:44:17;;;;;;;10.73;7.00;;;;;;;;;;6180880;23;20001;-87
2022/05/14 00:46:50;;;;;;;14.77;6.65;;;;;;;;;;6181049;23;20016;-86
2022/05/14 00:49:19;;;;;;;15.23;6.88;;;;;;;;;;6155850;23;20029;-88
2022/05/14 00:51:46;;;;;;;9.90;6.40;;;;;;;;;;6154061;23;20726;-87
2022/05/14 00:54:16;;;;;;;10.15;5.38;;;;;;;;;;6155438;23;20443;-87
2022/05/14 00:56:58;;;;;;;11.82;6.45;;;;;;;;;;6155986;23;20421;-88
2022/05/14 00:59:30;;;;;;;13.10;6.53;;;;;;;;;;6158443;23;20016;-88
2022/05/14 01:02:00;;;;;;;11.88;5.22;;;;;;;;;;6159911;23;20005;-87
2022/05/14 01:04:29;;;;;;;14.65;6.63;;;;;;;;;;6159881;23;20013;-87
2022/05/14 01:07:02;;;;;;;9.80;5.15;;;;;;;;;;6159038;23;20020;-87
2022/05/14 01:09:30;;;;;;;10.45;5.32;;;;;;;;;;6154985;23;20020;-87
2022/05/14 01:11:58;;;;;;;12.18;5.38;;;;;;;;;;6160344;23;20056;-87
2022/05/14 01:14:27;;;;;;;7.32;5.30;;;;;;;;;;6160429;23;20080;-87
2022/05/14 01:16:54;;;;;;;11.18;5.30;;;;;;;;;;6159940;23;20013;-87
2022/05/14 01:19:20;;;;;;;9.75;4.47;;;;;;;;;;6160733;23;20008;-87
2022/05/14 01:22:12;;;;;;;10.05;4.78;;;;;;;;;;6160288;23;20092;-87
2022/05/14 01:27:20;;;;;;;8.32;4.97;;;;;;;;;;6186811;23;20449;-88
2022/05/14 01:29:48;;;;;;;11.02;5.13;;;;;;;;;;6184218;23;20009;-88
2022/05/14 01:32:15;;;;;;;10.35;4.65;;;;;;;;;;6159192;23;20135;-87
2022/05/14 01:34:58;;;;;;;6.00;3.25;;;;;;;;;;6159441;23;20318;-88
2022/05/14 01:37:25;;;;;;;7.88;3.33;;;;;;;;;;6183252;23;20374;-88
2022/05/14 01:39:53;;;;;;;6.10;2.92;;;;;;;;;;6158789;23;20005;-87
2022/05/14 01:42:19;;;;;;;8.88;3.25;;;;;;;;;;6185920;23;20001;-87
2022/05/14 01:44:46;;;;;;;14.23;3.45;;;;;;;;;;6185603;23;20445;-87
2022/05/14 01:47:12;;;;;;;7.03;2.83;;;;;;;;;;6158647;23;20032;-87
2022/05/14 01:49:39;;;;;;;7.50;2.88;;;;;;;;;;6158987;23;20055;-87
2022/05/14 01:52:11;;;;;;;9.13;3.22;;;;;;;;;;6158418;23;20371;-88
2022/05/14 01:54:38;;;;;;;8.65;3.28;;;;;;;;;;6158005;23;20037;-87
2022/05/14 01:57:10;;;;;;;9.05;3.17;;;;;;;;;;6159094;23;20004;-88
2022/05/14 01:59:37;;;;;;;8.60;4.18;;;;;;;;;;6157842;23;20037;-87
2022/05/14 02:05:14;;;;;;;12.60;5.18;;;;;;;;;;6185562;23;20004;-87
2022/05/14 02:07:41;;;;;;;15.60;4.88;;;;;;;;;;6186117;23;20368;-87
2022/05/14 02:10:30;;;;;;;13.88;5.47;;;;;;;;;;6160436;23;20092;-87
2022/05/14 02:12:57;;;;;;;11.65;5.13;;;;;;;;;;6159694;23;20012;-87
2022/05/14 02:15:24;;;;;;;11.52;5.32;;;;;;;;;;6159754;23;20012;-87
2022/05/14 02:17:51;;;;;;;12.30;5.18;;;;;;;;;;6159424;23;20005;-87
2022/05/14 02:20:27;;;;;;;14.32;5.35;;;;;;;;;;6157874;23;20009;-87
2022/05/14 02:22:53;;;;;;;13.35;5.78;;;;;;;;;;6158753;23;20488;-87
2022/05/14 02:25:30;;;;;;;17.20;5.72;;;;;;;;;;6159212;23;20328;-87
2022/05/14 02:28:00;;;;;;;15.25;6.10;;;;;;;;;;6159723;23;20016;-87
2022/05/14 02:30:28;;;;;;;17.70;6.65;;;;;;;;;;6159317;23;20005;-87
2022/05/14 02:32:55;;;;;;;15.40;6.25;;;;;;;;;;6160107;23;20040;-90
2022/05/14 02:35:21;;;;;;;15.45;6.50;;;;;;;;;;6159932;23;20337;-89
2022/05/14 02:37:56;;;;;;;15.85;6.28;;;;;;;;;;6159873;23;20033;-88
2022/05/14 02:40:22;;;;;;;13.90;5.82;;;;;;;;;;6185452;23;20005;-89
2022/05/14 02:42:50;;;;;;;14.25;5.97;;;;;;;;;;6159654;23;20036;-88
2022/05/14 02:45:16;;;;;;;16.30;6.70;;;;;;;;;;6159228;23;20309;-89
2022/05/14 02:47:54;;;;;;;16.77;5.97;;;;;;;;;;6158351;23;20439;-88
2022/05/14 02:50:20;;;;;;;18.20;6.28;;;;;;;;;;6158415;23;20067;-88
2022/05/14 02:52:53;;;;;;;16.25;6.05;;;;;;;;;;6158979;23;20444;-88
2022/05/14 02:55:20;;;;;;;12.82;5.53;;;;;;;;;;6159033;23;20013;-88
2022/05/14 02:57:48;;;;;;;10.23;5.38;;;;;;;;;;6184471;23;20009;-88
2022/05/14 03:00:17;;;;;;;11.77;4.85;;;;;;;;;;6184628;23;20084;-88
2022/05/14 03:02:53;;;;;;;9.48;4.93;;;;;;;;;;6158226;23;20009;-88
2022/05/14 03:05:32;;;;;;;15.60;5.93;;;;;;;;;;6158407;23;20005;-87
2022/05/14 03:07:58;;;;;;;13.38;4.80;;;;;;;;;;6158493;23;20387;-87
2022/05/14 03:10:24;;;;;;;13.02;4.60;;;;;;;;;;6158657;23;20372;-87
2022/05/14 03:12:51;;;;;;;18.75;4.57;;;;;;;;;;6185633;23;20057;-87
2022/05/14 03:15:20;;;;;;;13.57;4.97;;;;;;;;;;6185471;23;20020;-87
2022/05/14 03:17:46;;;;;;;10.23;5.30;;;;;;;;;;6158314;23;20028;-86
2022/05/14 03:20:15;;;;;;;9.88;4.13;;;;;;;;;;6185096;23;20329;-88
2022/05/14 03:22:48;;;;;;;11.40;4.75;;;;;;;;;;6158715;23;20065;-88
2022/05/14 03:25:15;;;;;;;19.17;5.47;;;;;;;;;;6183343;23;20071;-88
2022/05/14 03:27:41;;;;;;;13.90;5.40;;;;;;;;;;6157202;23;20013;-86
2022/05/14 03:30:17;;;;;;;19.17;7.13;;;;;;;;;;6156978;23;20009;-88
2022/05/14 03:32:58;;;;;;;12.77;6.10;;;;;;;;;;6183969;23;20005;-87
2022/05/14 03:35:24;;;;;;;13.85;4.60;;;;;;;;;;6185005;23;20025;-87
2022/05/14 03:37:52;;;;;;;14.95;4.82;;;;;;;;;;6157416;23;20009;-88
2022/05/14 03:40:18;;;;;;;11.05;4.80;;;;;;;;;;6158365;23;20722;-88
2022/05/14 03:43:18;;;;;;;12.85;5.45;;;;;;;;;;6156797;23;20005;-88
2022/05/14 03:45:52;;;;;;;15.45;6.82;;;;;;;;;;6094008;23;20005;-89
2022/05/14 03:48:18;;;;;;;13.77;6.28;;;;;;;;;;6158063;23;20024;-88
2022/05/14 03:50:54;;;;;;;13.52;6.43;;;;;;;;;;6159092;23;20005;-89
2022/05/14 03:53:20;;;;;;;11.50;6.20;;;;;;;;;;6184594;23;20001;-87
2022/05/14 03:55:53;;;;;;;17.48;7.32;;;;;;;;;;6158271;23;20005;-87
2022/05/14 03:58:22;;;;;;;15.18;6.55;;;;;;;;;;6158003;23;20002;-89
2022/05/14 04:00:50;;;;;;;16.42;6.75;;;;;;;;;;6157304;23;20029;-88
2022/05/14 04:03:16;;;;;;;11.85;6.72;;;;;;;;;;6156379;23;20052;-88
2022/05/14 04:05:53;;;;;;;15.73;7.10;;;;;;;;;;6157723;23;20012;-89
2022/05/14 04:08:26;;;;;;;12.27;6.57;;;;;;;;;;6158032;23;20340;-91
2022/05/14 04:10:54;;;;;;;14.65;6.95;;;;;;;;;;6158599;23;20001;-90
2022/05/14 04:13:21;;;;;;;18.63;7.22;;;;;;;;;;6158901;23;19997;-92
2022/05/14 04:15:50;;;;;;;17.42;6.80;;;;;;;;;;6158991;23;20001;-91
2022/05/14 04:18:24;;;;;;;17.90;7.55;;;;;;;;;;6159356;23;20009;-89
2022/05/14 04:20:57;;;;;;;22.20;7.60;;;;;;;;;;6183655;23;20502;-90
2022/05/14 04:23:31;;;;;;;17.35;6.85;;;;;;;;;;6159451;23;20005;-89
2022/05/14 04:25:58;;;;;;;19.05;6.22;;;;;;;;;;6158508;23;20001;-90
2022/05/14 04:28:24;;;;;;;12.00;6.20;;;;;;;;;;6158366;23;20073;-90
2022/05/14 04:30:52;;;;;;;11.57;6.35;;;;;;;;;;6160362;23;20424;-89
2022/05/14 04:33:18;;;;;;;12.45;6.63;;;;;;;;;;6161104;23;20375;-88
2022/05/14 04:36:09;;;;;;;15.90;6.72;;;;;;;;;;6186870;23;19997;-90
2022/05/14 04:38:48;;;;;;;16.15;6.85;;;;;;;;;;6043416;23;20117;-90
2022/05/14 04:41:15;;;;;;;11.40;6.10;;;;;;;;;;6157765;23;20104;-90
2022/05/14 04:43:41;;;;;;;18.67;7.20;;;;;;;;;;6160210;23;20028;-91
2022/05/14 04:46:20;;;;;;;20.55;6.65;;;;;;;;;;6160723;23;20016;-93
2022/05/14 04:48:53;;;;;;;24.05;7.72;;;;;;;;;;6160695;23;20024;-94
2022/05/14 04:51:20;;;;;;;19.45;6.72;;;;;;;;;;6163146;23;20088;-92
2022/05/14 04:53:53;;;;;;;29.63;8.90;;;;;;;;;;6160287;23;20005;-90
2022/05/14 04:56:28;;;;;;;19.88;7.93;;;;;;;;;;6160226;23;20028;-90
2022/05/14 04:58:59;;;;;;;20.17;8.27;;;;;;;;;;6160832;23;20020;-89
2022/05/14 05:01:38;;;;;;;20.15;9.13;;;;;;;;;;6160996;23;20075;-91
2022/05/14 05:04:11;;;;;;;17.83;9.18;;;;;;;;;;6159610;23;20416;-90
2022/05/14 05:06:37;;;;;;;24.67;9.30;;;;;;;;;;6160139;23;20009;-90
2022/05/14 05:09:27;;;;;;;27.83;7.97;;;;;;;;;;6159826;23;20009;-89
2022/05/14 05:11:54;;;;;;;16.33;8.23;;;;;;;;;;6159883;23;20033;-89
2022/05/14 05:14:22;;;;;;;15.75;6.65;;;;;;;;;;6186793;23;20059;-89
2022/05/14 05:16:48;;;;;;;13.57;4.90;;;;;;;;;;6160431;23;20017;-89
2022/05/14 05:19:19;;;;;;;16.33;5.68;;;;;;;;;;6161078;23;20008;-91
2022/05/14 05:21:49;;;;;;;18.88;5.75;;;;;;;;;;6160308;23;20523;-89
2022/05/14 05:24:22;;;;;;;14.07;5.10;;;;;;;;;;6160336;23;20009;-89
2022/05/14 05:26:51;;;;;;;16.73;4.90;;;;;;;;;;6158160;23;20023;-90
2022/05/14 05:29:18;;;;;;;10.68;4.53;;;;;;;;;;6160511;23;20013;-91
2022/05/14 05:31:44;;;;;;;13.70;4.70;;;;;;;;;;6160606;23;20005;-89
2022/05/14 05:34:16;;;;;;;13.15;4.30;;;;;;;;;;6159837;23;20009;-89
2022/05/14 05:37:01;;;;;;;13.10;5.30;;;;;;;;;;6159329;23;20009;-91
2022/05/14 05:39:28;;;;;;;15.75;5.13;;;;;;;;;;6159123;23;20067;-90
2022/05/14 05:41:58;;;;;;;7.93;4.32;;;;;;;;;;6159861;23;20447;-90
2022/05/14 05:44:25;;;;;;;11.20;3.78;;;;;;;;;;6160160;23;20009;-90
2022/05/14 05:46:54;;;;;;;11.52;4.53;;;;;;;;;;6159037;23;20016;-90
2022/05/14 05:49:21;;;;;;;8.15;3.08;;;;;;;;;;6160105;23;20092;-91
2022/05/14 05:51:56;;;;;;;11.50;3.70;;;;;;;;;;6159529;23;20435;-90
2022/05/14 05:57:14;;;;;;;9.40;3.30;;;;;;;;;;6185070;23;20092;-90
2022/05/14 05:59:41;;;;;;;9.15;3.83;;;;;;;;;;6159491;23;20083;-90
2022/05/14 06:02:08;;;;;;;16.08;5.93;;;;;;;;;;6159362;23;20333;-90
2022/05/14 06:04:35;;;;;;;17.15;4.38;;;;;;;;;;6159192;23;20005;-90
2022/05/14 06:07:02;;;;;;;14.27;4.20;;;;;;;;;;6158253;23;20009;-90
2022/05/14 06:09:29;;;;;;;19.83;4.63;;;;;;;;;;6159126;23;20014;-91
2022/05/14 06:12:17;;;;;;;16.13;3.63;;;;;;;;;;6159799;23;20016;-90
2022/05/14 06:14:44;;;;;;;12.38;3.47;;;;;;;;;;6158927;23;20005;-90
2022/05/14 06:17:14;;;;;;;12.88;3.97;;;;;;;;;;6157779;23;20666;-89
2022/05/14 06:19:42;;;;;;;9.40;4.00;;;;;;;;;;6159460;23;20001;-90
2022/05/14 06:22:08;;;;;;;11.90;4.20;;;;;;;;;;6159261;23;20009;-91
